Time;durP1;ratioP1;P1;durP2;ratioP2;P2;SDS_P1;SDS_P2;PMS_P1;PMS_P2;Temp;Humidity;BMP_temperature;BMP_pressure;BME280_temperature;BME280_humidity;BME280_pressure;Samples;Min_cycle;Max_cycle;Signal;HPM_P1;HPM_P2
2023/05/14 00:00:46;;;;;;;16.25;15.15;;;;;;;11.26;73.45;98334.72;4977512;28;20034;-76
2023/05/14 00:03:11;;;;;;;21.23;19.83;;;;;;;10.89;75.08;98335.19;4994819;28;20393;-77
2023/05/14 00:05:36;;;;;;;23.25;21.85;;;;;;;10.98;75.20;98331.03;4993536;28;20070;-77
2023/05/14 00:08:02;;;;;;;18.48;17.35;;;;;;;11.08;74.08;98328.47;4998549;28;20031;-76
2023/05/14 00:10:27;;;;;;;19.02;17.85;;;;;;;10.86;75.03;98330.28;4994679;28;20510;-77
2023/05/14 00:12:53;;;;;;;17.80;16.70;;;;;;;10.92;74.73;98323.91;4993591;28;20030;-77
2023/05/14 00:15:18;;;;;;;17.60;16.20;;;;;;;11.24;73.36;98316.09;5004270;28;20484;-77
2023/05/14 00:17:44;;;;;;;17.38;16.15;;;;;;;11.20;73.77;98331.13;4994086;28;20029;-75
2023/05/14 00:20:11;;;;;;;17.90;16.77;;;;;;;11.36;73.63;98321.41;4993019;28;20042;-75
2023/05/14 00:22:37;;;;;;;16.52;15.43;;;;;;;11.11;73.87;98319.91;4992931;28;20064;-75
2023/05/14 00:25:03;;;;;;;16.17;15.07;;;;;;;11.33;73.31;98316.50;4992871;28;20057;-77
2023/05/14 00:27:28;;;;;;;17.15;15.98;;;;;;;10.79;75.02;98313.44;4993046;28;20022;-76
2023/05/14 00:29:53;;;;;;;19.13;17.83;;;;;;;10.93;74.85;98319.34;5003604;28;20507;-77
2023/05/14 00:32:19;;;;;;;18.80;17.42;;;;;;;10.93;74.45;98304.00;4980716;28;20112;-75
2023/05/14 00:34:44;;;;;;;16.98;15.77;;;;;;;11.10;73.45;98304.81;4992072;28;20514;-76
2023/05/14 00:37:10;;;;;;;18.00;16.90;;;;;;;11.04;74.04;98302.28;4995930;28;20080;-75
2023/05/14 00:39:35;;;;;;;16.67;15.48;;;;;;;11.15;73.59;98305.97;5008604;28;20516;-75
2023/05/14 00:42:00;;;;;;;18.15;16.85;;;;;;;11.01;74.26;98310.88;4988944;28;20062;-76
2023/05/14 00:44:26;;;;;;;20.27;18.98;;;;;;;10.45;76.63;98306.34;4986097;28;20034;-75
2023/05/14 00:46:51;;;;;;;20.42;19.17;;;;;;;10.78;74.72;98311.78;4995897;28;20037;-75
2023/05/14 00:49:17;;;;;;;21.00;19.75;;;;;;;10.81;74.75;98295.16;4976061;28;20129;-76
2023/05/14 00:51:45;;;;;;;17.17;16.08;;;;;;;11.07;73.24;98308.00;4992077;28;20033;-75
2023/05/14 00:54:15;;;;;;;16.90;15.80;;;;;;;10.99;73.78;98308.41;5001792;28;20066;-76
2023/05/14 00:56:42;;;;;;;20.52;19.13;;;;;;;10.81;74.61;98302.41;4980145;28;20037;-76
2023/05/14 00:59:07;;;;;;;21.75;20.15;;;;;;;10.81;74.91;98313.19;4991914;28;20034;-76
2023/05/14 01:01:33;;;;;;;21.88;20.48;;;;;;;10.68;75.35;98311.63;4978827;28;20045;-75
2023/05/14 01:03:59;;;;;;;19.73;18.42;;;;;;;11.02;73.74;98317.88;5011145;28;20105;-75
2023/05/14 01:07:05;;;;;;;18.67;17.48;;;;;;;11.11;73.63;98309.13;4993786;28;20054;-76
2023/05/14 01:09:39;;;;;;;16.70;15.50;;;;;;;11.22;73.26;98310.13;4994822;28;20034;-76
2023/05/14 01:12:28;;;;;;;17.77;16.58;;;;;;;10.92;74.44;98301.56;4993786;28;20527;-77
2023/05/14 01:15:01;;;;;;;17.02;15.98;;;;;;;10.91;74.16;98311.50;4982383;28;20052;-77
2023/05/14 01:17:28;;;;;;;20.77;19.42;;;;;;;10.77;75.37;98302.09;4992242;28;20030;-77
2023/05/14 01:19:54;;;;;;;18.25;17.15;;;;;;;11.01;74.10;98306.28;4984453;28;20026;-76
2023/05/14 01:22:19;;;;;;;18.73;17.40;;;;;;;10.78;74.28;98289.44;4976345;28;20089;-77
2023/05/14 01:24:45;;;;;;;18.77;17.52;;;;;;;10.86;74.24;98299.81;4993783;28;20030;-77
2023/05/14 01:27:30;;;;;;;20.05;18.85;;;;;;;10.97;74.22;98302.44;5005766;28;20093;-76
2023/05/14 01:30:02;;;;;;;21.57;20.27;;;;;;;10.69;74.77;98302.47;5003146;28;20121;-76
2023/05/14 01:32:29;;;;;;;23.15;21.75;;;;;;;10.58;76.09;98300.66;4997773;28;20030;-75
2023/05/14 01:34:56;;;;;;;25.40;23.98;;;;;;;10.60;75.85;98303.94;4991639;28;20037;-75
2023/05/14 01:37:21;;;;;;;28.17;26.48;;;;;;;10.43;76.36;98295.03;4989377;28;20027;-75
2023/05/14 01:39:48;;;;;;;26.30;24.77;;;;;;;10.54;75.67;98296.00;4973025;28;20033;-75
2023/05/14 01:42:14;;;;;;;31.30;29.60;;;;;;;10.00;77.85;98302.72;4990437;28;20093;-75
2023/05/14 01:44:39;;;;;;;32.10;30.30;;;;;;;10.24;77.26;98301.66;4993316;28;20026;-75
2023/05/14 01:47:05;;;;;;;35.70;33.88;;;;;;;10.24;76.81;98298.94;4987178;28;20117;-76
2023/05/14 01:49:31;;;;;;;34.00;32.15;;;;;;;10.43;76.68;98297.72;5014586;28;20026;-75
2023/05/14 01:51:56;;;;;;;33.38;31.58;;;;;;;10.40;77.10;98300.88;4998148;28;20034;-75
2023/05/14 01:54:22;;;;;;;34.20;32.53;;;;;;;10.41;77.25;98299.81;4993083;28;20361;-76
2023/05/14 01:56:48;;;;;;;36.95;34.95;;;;;;;10.55;76.81;98293.06;5002817;28;20066;-75
2023/05/14 01:59:14;;;;;;;32.65;30.95;;;;;;;10.64;76.57;98299.69;4998326;28;20057;-76
2023/05/14 02:01:40;;;;;;;36.15;34.15;;;;;;;10.68;76.94;98295.47;4998442;28;20431;-76
2023/05/14 02:04:05;;;;;;;32.97;31.17;;;;;;;10.88;76.45;98290.44;4992902;28;20126;-76
2023/05/14 02:06:31;;;;;;;28.50;26.92;;;;;;;10.84;75.51;98293.84;4986163;28;20062;-76
2023/05/14 02:08:56;;;;;;;27.27;25.77;;;;;;;10.84;75.61;98294.69;5014606;28;20121;-76
2023/05/14 02:11:21;;;;;;;24.88;23.42;;;;;;;10.94;75.06;98284.09;4998308;28;20137;-76
2023/05/14 02:13:47;;;;;;;22.75;21.35;;;;;;;11.17;74.57;98287.66;4993927;28;20026;-75
2023/05/14 02:16:12;;;;;;;24.63;23.20;;;;;;;10.82;75.71;98283.34;4998461;28;20125;-77
2023/05/14 02:18:38;;;;;;;29.83;28.17;;;;;;;10.80;76.67;98288.16;5010363;28;20472;-77
2023/05/14 02:21:03;;;;;;;31.00;29.30;;;;;;;10.75;76.15;98279.16;5003822;28;20042;-77
2023/05/14 02:23:28;;;;;;;27.65;26.05;;;;;;;11.00;75.58;98282.28;4999431;28;20022;-75
2023/05/14 02:25:54;;;;;;;30.33;28.52;;;;;;;10.62;76.59;98291.03;4995508;28;20146;-76
2023/05/14 02:28:20;;;;;;;27.80;26.08;;;;;;;10.96;75.32;98290.03;5009527;28;20049;-77
2023/05/14 02:30:45;;;;;;;27.10;25.52;;;;;;;11.05;75.50;98279.66;4995179;28;20477;-77
2023/05/14 02:33:11;;;;;;;27.05;25.27;;;;;;;10.99;75.23;98281.44;5014791;28;20062;-77
2023/05/14 02:35:36;;;;;;;24.75;23.33;;;;;;;10.91;75.36;98283.75;5002650;28;20045;-76
2023/05/14 02:38:02;;;;;;;27.50;25.80;;;;;;;10.93;75.87;98287.81;4998291;28;20104;-77
2023/05/14 02:40:27;;;;;;;29.20;27.55;;;;;;;10.78;76.32;98287.56;4999427;28;20034;-77
2023/05/14 02:42:52;;;;;;;27.27;25.75;;;;;;;10.82;75.74;98294.09;5009317;28;20022;-77
2023/05/14 02:45:18;;;;;;;23.52;22.20;;;;;;;11.17;74.61;98287.66;5014229;28;20042;-75
2023/05/14 02:47:43;;;;;;;27.98;26.42;;;;;;;10.90;76.13;98292.88;5008759;28;20019;-75
2023/05/14 02:50:10;;;;;;;30.08;28.38;;;;;;;10.63;76.90;98292.69;4986610;28;20050;-75
2023/05/14 02:52:35;;;;;;;28.77;27.17;;;;;;;10.71;75.84;98281.50;4997688;28;20037;-75
2023/05/14 02:55:01;;;;;;;25.92;24.30;;;;;;;10.81;75.41;98273.59;4990572;28;20108;-75
2023/05/14 02:57:26;;;;;;;24.52;23.13;;;;;;;10.92;75.35;98286.19;4989514;28;20030;-75
2023/05/14 02:59:52;;;;;;;28.33;26.75;;;;;;;10.80;76.45;98281.94;4997205;28;20396;-76
2023/05/14 03:02:17;;;;;;;35.25;33.15;;;;;;;10.67;77.44;98285.75;4994261;28;20022;-76
2023/05/14 03:04:43;;;;;;;35.13;33.15;;;;;;;10.58;77.81;98273.75;4998866;28;20130;-77
2023/05/14 03:07:08;;;;;;;36.72;34.83;;;;;;;10.75;77.11;98276.47;4995757;28;20054;-76
2023/05/14 03:09:34;;;;;;;40.83;38.83;;;;;;;10.53;78.00;98276.34;4994356;28;20030;-76
2023/05/14 03:12:01;;;;;;;41.75;39.70;;;;;;;10.45;78.65;98270.53;4962138;28;20030;-76
2023/05/14 03:14:27;;;;;;;41.13;38.97;;;;;;;10.36;78.09;98281.69;4978192;28;20443;-76
2023/05/14 03:16:52;;;;;;;36.80;34.80;;;;;;;10.57;77.75;98287.47;4971968;28;20038;-78
2023/05/14 03:19:18;;;;;;;34.60;32.70;;;;;;;10.64;76.59;98290.81;4997744;28;20487;-77
2023/05/14 03:21:43;;;;;;;34.05;32.22;;;;;;;10.58;77.31;98287.22;5010927;28;20030;-77
2023/05/14 03:37:24;;;;;;;31.92;30.33;;;;;;;11.01;76.88;98283.91;5051047;28;20083;-76
2023/05/14 03:39:50;;;;;;;28.17;26.33;;;;;;;10.74;76.81;98286.41;5039325;28;20064;-76
2023/05/14 03:42:15;;;;;;;30.77;29.00;;;;;;;11.06;75.93;98292.88;5043614;28;20029;-75
2023/05/14 03:44:41;;;;;;;31.52;29.83;;;;;;;11.16;75.95;98286.00;5029437;28;20082;-76
2023/05/14 03:47:06;;;;;;;29.70;28.05;;;;;;;10.91;76.45;98284.56;5034086;28;20033;-75
2023/05/14 03:49:32;;;;;;;29.23;27.52;;;;;;;10.87;76.79;98283.44;5045987;28;20037;-75
2023/05/14 03:51:58;;;;;;;33.22;31.52;;;;;;;10.94;76.91;98284.09;5016011;28;20454;-75
2023/05/14 03:54:24;;;;;;;29.80;28.00;;;;;;;10.96;76.71;98281.97;5045542;28;20036;-74
2023/05/14 03:56:50;;;;;;;27.92;26.42;;;;;;;10.84;76.74;98283.91;5034103;28;20056;-74
2023/05/14 03:59:15;;;;;;;30.70;29.10;;;;;;;10.90;76.76;98287.47;5021174;28;20061;-74
2023/05/14 04:01:40;;;;;;;31.83;30.15;;;;;;;10.60;78.02;98277.00;5044665;28;20017;-74
2023/05/14 04:04:06;;;;;;;29.40;27.80;;;;;;;10.96;76.33;98281.97;5031033;28;20028;-75
2023/05/14 04:06:32;;;;;;;28.48;26.90;;;;;;;10.86;76.21;98287.16;5043497;28;20112;-75
2023/05/14 04:08:57;;;;;;;30.45;28.75;;;;;;;10.81;77.02;98278.16;5029949;28;20084;-75
2023/05/14 04:11:22;;;;;;;30.38;28.67;;;;;;;10.93;76.59;98287.00;5013735;28;20031;-75
2023/05/14 04:13:48;;;;;;;28.10;26.45;;;;;;;11.02;75.96;98283.66;5018669;28;20514;-75
2023/05/14 04:16:14;;;;;;;22.27;20.98;;;;;;;11.22;74.59;98279.66;5024264;28;20052;-74
2023/05/14 04:18:39;;;;;;;23.38;22.08;;;;;;;11.25;74.91;98281.88;5002107;28;20048;-75
2023/05/14 04:21:04;;;;;;;26.52;25.02;;;;;;;11.26;75.63;98275.41;5012504;28;20476;-76
2023/05/14 04:23:30;;;;;;;24.55;23.15;;;;;;;10.96;75.62;98287.34;5024256;28;20037;-76
2023/05/14 04:25:56;;;;;;;25.25;23.70;;;;;;;10.98;75.63;98279.81;5025215;28;20067;-76
2023/05/14 04:28:22;;;;;;;23.40;21.90;;;;;;;11.02;74.90;98280.97;5038141;28;20025;-76
2023/05/14 04:30:47;;;;;;;23.02;21.63;;;;;;;11.30;74.26;98276.53;5040513;28;20565;-76
2023/05/14 04:33:13;;;;;;;22.45;21.00;;;;;;;11.37;74.26;98287.97;5038251;28;20041;-76
2023/05/14 04:35:38;;;;;;;20.80;19.42;;;;;;;11.13;74.96;98278.44;5042908;28;20146;-76
2023/05/14 04:38:03;;;;;;;23.75;22.35;;;;;;;11.34;74.31;98278.47;5015169;28;20029;-76
2023/05/14 04:40:30;;;;;;;24.30;22.77;;;;;;;11.48;74.23;98281.69;5034695;28;20029;-76
2023/05/14 04:42:55;;;;;;;25.73;24.33;;;;;;;11.57;74.51;98280.19;5038054;28;20041;-76
2023/05/14 04:45:21;;;;;;;21.25;19.85;;;;;;;11.45;73.80;98285.69;5023233;28;20494;-77
2023/05/14 04:47:46;;;;;;;25.25;23.73;;;;;;;11.34;75.15;98283.88;5023143;28;20033;-75
2023/05/14 04:50:12;;;;;;;20.27;18.83;;;;;;;11.50;73.27;98287.63;5022946;28;20032;-76
2023/05/14 04:52:37;;;;;;;17.40;16.00;;;;;;;11.75;72.16;98282.63;5037435;28;20037;-75
2023/05/14 04:55:03;;;;;;;16.58;15.38;;;;;;;11.87;72.25;98283.31;5038888;28;20029;-75
2023/05/14 04:57:28;;;;;;;19.40;18.15;;;;;;;11.48;74.39;98279.78;5017783;28;20025;-75
2023/05/14 04:59:54;;;;;;;18.75;17.45;;;;;;;11.59;73.50;98286.13;5022406;28;20041;-74
2023/05/14 05:02:19;;;;;;;18.45;17.25;;;;;;;11.74;73.16;98283.66;5037630;28;20048;-76
2023/05/14 05:04:45;;;;;;;16.67;15.32;;;;;;;11.74;72.06;98278.28;5026641;28;20029;-75
2023/05/14 05:07:12;;;;;;;14.27;13.25;;;;;;;11.50;72.56;98276.84;5044340;28;20024;-75
2023/05/14 05:09:37;;;;;;;16.77;15.55;;;;;;;11.64;72.77;98289.75;5014609;28;20506;-74
2023/05/14 05:12:03;;;;;;;17.90;16.58;;;;;;;11.59;72.90;98280.75;5045530;28;20041;-75
2023/05/14 05:14:28;;;;;;;16.30;14.98;;;;;;;11.54;73.07;98283.38;5030503;28;20037;-76
2023/05/14 05:16:53;;;;;;;17.50;16.17;;;;;;;11.90;72.45;98288.22;5036080;28;20095;-75
2023/05/14 05:19:19;;;;;;;18.20;16.80;;;;;;;11.69;73.22;98276.31;5044676;28;20531;-75
2023/05/14 05:21:44;;;;;;;17.23;16.02;;;;;;;11.33;73.69;98278.75;5044615;28;20040;-77
2023/05/14 05:24:10;;;;;;;19.92;18.63;;;;;;;11.71;73.16;98273.41;5043613;28;20471;-76
2023/05/14 05:26:35;;;;;;;21.20;19.70;;;;;;;11.58;74.05;98262.91;5044190;28;20152;-76
2023/05/14 05:29:02;;;;;;;17.92;16.63;;;;;;;11.49;73.44;98269.81;5023849;28;20106;-76
2023/05/14 05:31:28;;;;;;;19.65;18.25;;;;;;;11.73;73.12;98269.38;5024781;28;20036;-77
2023/05/14 05:33:53;;;;;;;18.98;17.83;;;;;;;12.08;71.96;98262.78;5023802;28;20383;-77
2023/05/14 05:36:18;;;;;;;18.83;17.58;;;;;;;11.79;72.89;98259.47;5014191;28;20103;-77
2023/05/14 05:38:44;;;;;;;17.73;16.52;;;;;;;11.90;72.77;98266.63;5043632;28;20048;-77
2023/05/14 05:41:09;;;;;;;14.52;13.32;;;;;;;11.97;71.87;98267.22;5044064;28;20112;-77
2023/05/14 05:43:34;;;;;;;16.25;15.05;;;;;;;12.11;71.98;98257.69;5044811;28;20028;-77
2023/05/14 05:46:00;;;;;;;14.60;13.50;;;;;;;12.33;70.83;98266.59;5026873;28;20037;-76
2023/05/14 05:48:25;;;;;;;11.95;10.95;;;;;;;12.82;69.21;98269.22;5020589;28;20445;-74
2023/05/14 05:50:51;;;;;;;11.63;10.63;;;;;;;12.89;68.31;98264.44;5039781;28;20037;-77
2023/05/14 05:53:17;;;;;;;11.35;10.32;;;;;;;13.37;67.23;98261.56;5027071;28;20490;-76
2023/05/14 05:55:42;;;;;;;10.77;9.88;;;;;;;12.96;68.55;98248.81;5044708;28;20502;-77
2023/05/14 05:58:08;;;;;;;11.55;10.55;;;;;;;13.05;68.39;98252.66;5014140;28;20064;-74
2023/05/14 06:00:33;;;;;;;10.05;9.02;;;;;;;13.44;67.43;98256.75;5030402;28;20095;-74
2023/05/14 06:02:59;;;;;;;9.13;8.23;;;;;;;13.60;66.06;98250.38;5036645;28;20486;-77
2023/05/14 06:05:24;;;;;;;9.73;8.63;;;;;;;13.38;66.59;98257.81;5037420;28;20084;-77
2023/05/14 06:07:50;;;;;;;9.30;8.40;;;;;;;13.21;66.57;98262.53;5023997;28;20415;-77
2023/05/14 06:10:15;;;;;;;9.20;8.30;;;;;;;13.43;66.08;98257.84;4994481;28;20041;-77
2023/05/14 06:12:40;;;;;;;9.13;8.20;;;;;;;13.26;66.40;98257.19;5043448;28;20049;-77
2023/05/14 06:15:06;;;;;;;9.52;8.07;;;;;;;13.57;66.62;98261.72;5042697;28;20041;-77
2023/05/14 06:17:31;;;;;;;9.15;8.27;;;;;;;13.49;65.75;98251.38;5014491;28;20127;-77
2023/05/14 06:19:57;;;;;;;9.07;8.27;;;;;;;13.48;65.28;98257.88;5044342;28;20045;-77
2023/05/14 06:22:22;;;;;;;8.80;8.00;;;;;;;13.45;65.82;98260.28;5019263;28;20025;-76
2023/05/14 06:24:48;;;;;;;8.75;7.88;;;;;;;13.68;65.68;98260.69;5033419;28;20116;-77
2023/05/14 06:27:13;;;;;;;8.93;7.93;;;;;;;13.83;65.10;98254.53;5024488;28;20037;-77
2023/05/14 06:29:38;;;;;;;8.55;7.75;;;;;;;14.14;64.50;98250.88;5037658;28;20114;-76
2023/05/14 06:32:04;;;;;;;8.55;7.75;;;;;;;13.94;64.64;98255.41;5038579;28;20463;-77
2023/05/14 06:34:30;;;;;;;9.18;7.78;;;;;;;13.76;65.30;98262.91;5054906;28;20460;-77
2023/05/14 06:36:56;;;;;;;7.88;7.07;;;;;;;13.84;64.66;98254.28;5022530;28;20029;-77
2023/05/14 06:39:22;;;;;;;8.02;7.18;;;;;;;14.19;63.98;98260.94;5021040;28;20462;-76
2023/05/14 06:41:48;;;;;;;7.03;6.35;;;;;;;13.88;63.47;98251.03;4996187;28;20033;-77
2023/05/14 06:44:13;;;;;;;8.32;7.05;;;;;;;14.33;63.27;98257.47;5013876;28;20490;-77
2023/05/14 06:46:39;;;;;;;7.20;6.50;;;;;;;14.57;62.06;98263.22;5048437;28;20033;-76
2023/05/14 06:49:04;;;;;;;8.15;7.35;;;;;;;14.54;62.15;98259.16;5051795;28;20036;-77
2023/05/14 06:51:30;;;;;;;8.00;7.20;;;;;;;14.19;63.12;98258.22;5043776;28;20036;-77
2023/05/14 06:53:55;;;;;;;8.32;7.63;;;;;;;14.34;63.41;98258.28;5043213;28;20108;-77
2023/05/14 06:56:21;;;;;;;7.65;6.85;;;;;;;14.30;63.18;98270.75;5048997;28;20708;-76
2023/05/14 06:58:47;;;;;;;8.00;7.20;;;;;;;14.22;64.22;98260.38;5028098;28;20028;-76
2023/05/14 07:01:12;;;;;;;7.45;6.68;;;;;;;14.34;62.01;98266.41;5023511;28;20387;-77
2023/05/14 07:03:37;;;;;;;7.68;6.72;;;;;;;14.55;61.61;98265.38;5022506;28;20045;-77
2023/05/14 07:06:03;;;;;;;7.38;6.68;;;;;;;14.92;60.81;98257.84;5030873;28;20095;-77
2023/05/14 07:08:28;;;;;;;7.63;6.70;;;;;;;14.69;61.54;98265.69;5027658;28;20065;-77
2023/05/14 07:10:55;;;;;;;7.50;6.75;;;;;;;14.92;60.89;98247.00;5028503;28;20113;-77
2023/05/14 07:13:20;;;;;;;7.20;6.13;;;;;;;15.07;60.66;98263.28;5020134;28;20135;-77
2023/05/14 07:15:45;;;;;;;8.32;6.63;;;;;;;14.93;59.75;98256.78;5039883;28;20475;-77
2023/05/14 07:18:11;;;;;;;7.80;6.63;;;;;;;15.61;59.44;98260.00;5024866;28;20029;-77
2023/05/14 07:20:36;;;;;;;7.72;6.55;;;;;;;15.14;60.61;98250.25;5046362;28;20538;-77
2023/05/14 07:23:01;;;;;;;9.35;6.63;;;;;;;15.41;60.18;98246.41;5033870;28;20048;-76
2023/05/14 07:25:27;;;;;;;9.85;6.78;;;;;;;15.67;58.53;98248.84;5038615;28;20025;-78
2023/05/14 07:27:52;;;;;;;7.70;6.50;;;;;;;15.54;57.87;98232.31;5037511;28;20030;-77
2023/05/14 07:30:18;;;;;;;8.55;6.35;;;;;;;15.71;57.01;98243.66;5033986;28;20078;-77
2023/05/14 07:32:43;;;;;;;6.60;5.72;;;;;;;15.86;58.77;98238.19;5023673;28;20399;-77
2023/05/14 07:35:10;;;;;;;6.90;6.20;;;;;;;16.02;57.68;98238.94;5047936;28;20033;-77
2023/05/14 07:37:36;;;;;;;8.88;6.53;;;;;;;15.97;57.62;98247.09;5000145;28;20033;-77
2023/05/14 07:40:01;;;;;;;7.78;6.55;;;;;;;15.72;56.75;98237.16;5032029;28;20091;-77
2023/05/14 07:42:26;;;;;;;6.70;5.82;;;;;;;15.24;57.16;98233.94;5032706;28;20029;-77
2023/05/14 08:09:09;;;;;;;8.02;6.22;;;;;;;15.02;59.77;98241.56;4284519;26;20440;-77
2023/05/14 08:11:34;;;;;;;7.20;6.22;;;;;;;15.10;58.66;98235.59;5031170;28;20038;-77
2023/05/14 08:14:00;;;;;;;7.25;6.15;;;;;;;15.21;59.14;98239.94;5013616;28;20148;-77
2023/05/14 08:16:25;;;;;;;7.22;6.50;;;;;;;15.51;58.18;98230.16;5018425;28;20391;-76
2023/05/14 08:18:51;;;;;;;6.68;5.97;;;;;;;15.35;59.25;98250.22;4992675;28;20030;-76
2023/05/14 08:21:16;;;;;;;7.28;6.38;;;;;;;15.15;60.69;98238.31;4993988;28;20038;-77
2023/05/14 08:23:42;;;;;;;7.70;6.68;;;;;;;15.51;58.67;98239.09;5008692;28;20029;-77
2023/05/14 08:26:07;;;;;;;9.23;6.70;;;;;;;14.80;60.53;98243.72;5001957;28;20030;-76
2023/05/14 08:28:33;;;;;;;7.32;6.53;;;;;;;14.98;58.91;98239.69;4989590;28;20030;-76
2023/05/14 08:30:58;;;;;;;7.15;6.45;;;;;;;15.21;58.88;98239.94;5002356;28;20038;-76
2023/05/14 08:33:23;;;;;;;7.60;6.78;;;;;;;14.97;61.21;98244.28;4998601;28;20552;-76
2023/05/14 08:35:52;;;;;;;8.48;7.03;;;;;;;14.97;59.79;98232.63;5011937;28;20026;-76
2023/05/14 08:38:18;;;;;;;6.70;6.07;;;;;;;15.19;59.26;98231.25;5008361;28;20492;-76
2023/05/14 08:40:55;;;;;;;6.90;6.20;;;;;;;15.33;59.02;98225.28;4959801;28;20034;-76
2023/05/14 08:43:25;;;;;;;6.80;5.88;;;;;;;15.36;58.99;98230.13;4980471;28;20472;-76
2023/05/14 08:45:53;;;;;;;6.43;5.82;;;;;;;15.46;58.78;98224.72;4983759;28;20539;-76
2023/05/14 08:48:19;;;;;;;7.38;6.40;;;;;;;15.42;58.09;98220.91;4988998;28;20133;-76
2023/05/14 08:50:45;;;;;;;9.68;6.60;;;;;;;15.24;58.31;98214.97;4992004;28;20431;-76
2023/05/14 08:53:10;;;;;;;7.88;6.20;;;;;;;15.45;58.97;98217.69;4979933;28;20133;-76
2023/05/14 08:55:36;;;;;;;11.48;6.47;;;;;;;15.34;58.40;98221.44;4978837;28;20030;-76
2023/05/14 08:58:01;;;;;;;6.60;5.93;;;;;;;15.58;57.38;98217.09;4981935;28;20399;-76
2023/05/14 09:00:27;;;;;;;6.97;6.28;;;;;;;15.91;56.52;98211.00;4999554;28;20057;-76
2023/05/14 09:02:53;;;;;;;6.80;6.10;;;;;;;16.06;57.89;98224.50;4996876;28;20085;-76
2023/05/14 09:05:19;;;;;;;6.18;5.10;;;;;;;15.56;57.86;98220.09;4978769;28;20116;-76
2023/05/14 09:07:45;;;;;;;6.53;5.50;;;;;;;15.83;56.47;98223.25;4982100;28;20030;-75
2023/05/14 09:10:10;;;;;;;6.55;5.50;;;;;;;16.09;56.64;98223.97;4982864;28;20037;-76
2023/05/14 09:12:36;;;;;;;7.00;5.85;;;;;;;16.03;57.43;98207.97;4988683;28;20066;-76
2023/05/14 09:15:01;;;;;;;6.03;5.43;;;;;;;16.21;55.80;98205.44;5003359;28;20551;-76
2023/05/14 09:17:27;;;;;;;6.93;5.65;;;;;;;16.54;57.35;98210.16;4981762;28;20092;-76
2023/05/14 09:19:52;;;;;;;6.55;5.10;;;;;;;16.30;54.89;98198.31;4983077;28;20030;-76
2023/05/14 09:22:18;;;;;;;7.07;5.18;;;;;;;17.00;54.76;98207.06;5004657;28;20042;-76
2023/05/14 09:24:44;;;;;;;5.03;4.53;;;;;;;16.10;56.16;98198.44;4986917;28;20022;-76
2023/05/14 09:27:20;;;;;;;6.18;4.88;;;;;;;16.72;54.27;98202.41;5011127;28;20040;-76
2023/05/14 09:29:46;;;;;;;5.50;4.90;;;;;;;16.50;55.00;98211.75;4994752;28;20485;-76
2023/05/14 09:32:12;;;;;;;5.90;4.78;;;;;;;15.99;55.17;98199.56;4965748;28;20026;-75
2023/05/14 09:34:37;;;;;;;7.97;6.05;;;;;;;16.21;54.37;98197.28;4997841;28;20038;-76
2023/05/14 09:37:04;;;;;;;5.90;5.03;;;;;;;16.09;55.11;98207.66;4987851;28;20604;-76
2023/05/14 09:39:31;;;;;;;5.35;4.85;;;;;;;16.48;53.92;98199.53;5004389;28;20034;-76
2023/05/14 09:41:57;;;;;;;6.07;5.47;;;;;;;16.21;54.63;98189.13;4998652;28;20100;-76
2023/05/14 09:44:23;;;;;;;6.10;5.50;;;;;;;16.59;53.31;98190.28;4997645;28;20435;-76
2023/05/14 09:46:48;;;;;;;6.00;5.15;;;;;;;16.46;54.30;98197.13;5003660;28;20034;-76
2023/05/14 09:49:14;;;;;;;5.95;5.35;;;;;;;16.90;53.64;98179.94;4972028;28;20026;-76
2023/05/14 09:51:39;;;;;;;5.65;5.03;;;;;;;16.70;53.53;98177.41;4998495;28;20117;-76
2023/05/14 09:54:05;;;;;;;6.10;4.88;;;;;;;16.56;54.47;98185.38;4981105;28;20173;-76
2023/05/14 09:56:35;;;;;;;5.95;5.35;;;;;;;16.64;54.13;98173.09;4987630;28;20022;-76
2023/05/14 09:59:01;;;;;;;5.15;4.65;;;;;;;16.56;54.61;98169.91;4988075;28;20373;-76
2023/05/14 10:01:28;;;;;;;5.32;4.82;;;;;;;16.80;52.38;98169.16;4982851;28;20026;-76
2023/05/14 10:03:54;;;;;;;5.03;4.53;;;;;;;17.26;51.77;98146.69;4983948;28;20489;-76
2023/05/14 10:06:25;;;;;;;5.10;4.32;;;;;;;16.41;52.58;98169.13;5014727;28;20037;-76
2023/05/14 10:08:55;;;;;;;5.53;4.80;;;;;;;17.03;52.52;98157.53;4983780;28;20030;-76
2023/05/14 10:11:24;;;;;;;5.45;4.50;;;;;;;16.73;52.63;98158.63;4978908;28;20045;-76
2023/05/14 10:13:56;;;;;;;8.07;5.05;;;;;;;16.70;54.34;98153.75;4991448;28;20117;-75
2023/05/14 10:16:30;;;;;;;5.45;4.95;;;;;;;17.03;53.64;98162.97;5004880;28;20112;-76
2023/05/14 10:19:00;;;;;;;5.47;4.97;;;;;;;17.06;53.00;98152.31;4985630;28;20038;-76
2023/05/14 10:21:27;;;;;;;7.25;4.68;;;;;;;17.16;53.50;98151.41;4986380;28;20514;-77
2023/05/14 10:23:52;;;;;;;4.95;4.45;;;;;;;16.44;53.82;98149.56;4979071;28;20038;-76
2023/05/14 10:26:18;;;;;;;5.00;4.50;;;;;;;16.49;53.09;98153.06;4990999;28;20076;-76
2023/05/14 10:28:43;;;;;;;4.72;4.25;;;;;;;16.81;52.60;98144.38;4984957;28;20045;-76
2023/05/14 10:31:09;;;;;;;4.50;4.10;;;;;;;17.04;51.96;98143.63;4985174;28;20033;-76
2023/05/14 10:33:51;;;;;;;5.15;4.28;;;;;;;17.16;50.87;98145.97;4990029;28;20129;-76
2023/05/14 10:36:17;;;;;;;4.45;4.00;;;;;;;17.49;50.40;98139.59;5007861;28;20073;-76
2023/05/14 10:38:42;;;;;;;4.30;3.90;;;;;;;17.12;48.45;98123.16;4985142;28;20029;-76
2023/05/14 10:41:13;;;;;;;5.30;4.22;;;;;;;17.84;48.65;98131.03;4968543;28;20034;-76
2023/05/14 10:43:40;;;;;;;5.10;4.38;;;;;;;17.12;50.30;98123.16;5006197;28;20030;-76
2023/05/14 10:46:07;;;;;;;4.82;4.20;;;;;;;17.48;49.26;98121.63;4974950;28;20029;-76
2023/05/14 10:48:32;;;;;;;4.70;3.90;;;;;;;17.47;48.66;98113.78;4994827;28;20045;-76
2023/05/14 10:50:58;;;;;;;5.28;4.38;;;;;;;17.63;48.88;98117.97;4991200;28;20026;-76
2023/05/14 10:53:35;;;;;;;4.13;3.72;;;;;;;17.54;50.69;98114.25;5002064;28;20045;-76
2023/05/14 10:56:08;;;;;;;4.13;3.80;;;;;;;17.80;49.06;98108.22;4981648;28;20046;-76
2023/05/14 10:58:35;;;;;;;4.38;3.83;;;;;;;17.85;51.17;98112.78;4994133;28;20062;-76
2023/05/14 11:01:01;;;;;;;5.70;4.10;;;;;;;17.83;51.16;98107.59;4981883;28;20052;-76
2023/05/14 11:03:30;;;;;;;5.05;4.05;;;;;;;17.49;49.71;98114.28;4987459;28;20484;-76
2023/05/14 11:05:56;;;;;;;4.85;4.35;;;;;;;17.35;49.86;98116.09;4982979;28;20175;-77
2023/05/14 11:08:21;;;;;;;4.82;3.95;;;;;;;17.66;49.50;98107.31;5003300;28;20054;-76
2023/05/14 11:10:48;;;;;;;5.00;4.18;;;;;;;17.23;52.29;98113.75;5007529;28;20058;-76
2023/05/14 11:13:15;;;;;;;4.25;3.85;;;;;;;17.63;51.15;98101.63;4989475;28;20484;-75
2023/05/14 11:15:45;;;;;;;4.55;4.13;;;;;;;17.82;50.24;98106.00;5001702;28;20507;-75
2023/05/14 11:18:11;;;;;;;4.90;4.10;;;;;;;18.02;50.17;98099.44;4971108;28;20038;-76
2023/05/14 11:20:36;;;;;;;4.97;4.20;;;;;;;18.31;48.82;98104.75;4993424;28;20599;-76
2023/05/14 11:23:02;;;;;;;4.10;3.80;;;;;;;18.13;47.24;98098.19;4992988;28;20026;-76
2023/05/14 11:25:27;;;;;;;4.40;4.00;;;;;;;18.16;46.75;98088.59;5012469;28;20439;-76
2023/05/14 11:27:57;;;;;;;4.20;3.80;;;;;;;18.74;46.24;98083.63;5013102;28;20041;-76
2023/05/14 11:30:23;;;;;;;4.60;4.20;;;;;;;18.26;48.93;98093.91;4984436;28;20026;-76
2023/05/14 11:32:49;;;;;;;4.88;3.75;;;;;;;18.66;47.13;98079.66;5001289;28;20128;-76
2023/05/14 11:35:15;;;;;;;4.35;3.72;;;;;;;18.46;45.56;98088.19;5006617;28;20141;-76
2023/05/14 11:37:41;;;;;;;4.20;3.80;;;;;;;18.58;47.21;98077.59;4988820;28;20459;-76
2023/05/14 11:40:15;;;;;;;4.82;4.32;;;;;;;18.53;47.70;98080.41;4999712;28;20034;-76
2023/05/14 11:42:40;;;;;;;5.38;3.90;;;;;;;18.59;47.47;98081.94;4984349;28;20038;-76
2023/05/14 11:45:06;;;;;;;4.78;4.28;;;;;;;19.11;47.92;98080.75;4989859;28;20088;-76
2023/05/14 11:47:32;;;;;;;5.20;4.30;;;;;;;19.21;47.11;98078.59;5005891;28;20373;-76
2023/05/14 11:49:58;;;;;;;4.55;4.15;;;;;;;18.68;46.90;98071.97;4993752;28;20026;-76
2023/05/14 11:52:24;;;;;;;4.53;4.00;;;;;;;19.02;46.10;98068.91;4993049;28;20125;-76
2023/05/14 11:54:49;;;;;;;4.57;4.13;;;;;;;18.36;46.78;98066.50;4982265;28;20120;-76
2023/05/14 11:57:19;;;;;;;4.85;4.18;;;;;;;17.90;50.53;98064.44;4983734;28;20038;-76